• Join FlightAware (Why Join?)
  • Login
  • US Flag 
04:30AM EDT


 

Airport Tracker/Info


-or-


 

Live Flight TrackerFlight Track Log ✈ CSZ9187 ✈ 07-Sep-2013 ✈ ZGGG / CAN - ZUUU / CTU

Flight Track Log - Related Links

Times and Time Zones

All times are in EDT time to prevent confusion due to time zone crossing. See the CSZ9187 flight status page for this flight to view local times or setup timezone preferences in your user account.

Time Position Orientation Groundspeed Altitude Reporting Facility
EDT Latitude Longitude Course Direction KTS MPH feet Rate Location/Type
10:06AM 24.0440 112.5266 313° West  Level Estimated
10:07AM 24.1161 112.4404 313° West  Level Estimated
10:08AM 24.1882 112.3540 312° West  Level Estimated
10:09AM 24.2603 112.2675 312° West  Level Estimated
10:10AM 24.3323 112.1810 312° West  Level Estimated
10:11AM 24.4043 112.0943 312° West  Level Estimated
10:12AM 24.4762 112.0075 312° West  Level Estimated
10:13AM 24.5480 111.9207 312° West  Level Estimated
10:14AM 24.6198 111.8337 312° West  Level Estimated
10:15AM 24.6916 111.7467 312° West  Level Estimated
10:16AM 24.7633 111.6595 312° West  Level Estimated
10:17AM 24.8350 111.5722 312° West  Level Estimated
10:18AM 24.9066 111.4849 312° West  Level Estimated
10:19AM 24.9781 111.3974 312° West  Level Estimated
10:20AM 25.0497 111.3098 312° West  Level Estimated
10:21AM 25.1211 111.2222 312° West  Level Estimated
10:22AM 25.1925 111.1344 312° West  Level Estimated
10:23AM 25.2638 111.0465 312° West  Level Estimated
10:24AM 25.3351 110.9585 312° West  Level Estimated
10:25AM 25.4064 110.8705 312° West  Level Estimated
10:26AM 25.4776 110.7823 312° West  Level Estimated
10:27AM 25.5487 110.6940 312° West  Level Estimated
10:28AM 25.6198 110.6056 312° West  Level Estimated
10:29AM 25.6909 110.5171 312° West  Level Estimated
10:30AM 25.7618 110.4285 312° West  Level Estimated
10:31AM 25.8328 110.3398 312° West  Level Estimated
10:32AM 25.9036 110.2509 312° West  Level Estimated
10:33AM 25.9745 110.1620 312° West  Level Estimated
10:34AM 26.0452 110.0730 312° West  Level Estimated
10:35AM 26.1159 109.9838 311° West  Level Estimated
10:36AM 26.1866 109.8946 311° West  Level Estimated
10:37AM 26.2572 109.8052 311° West  Level Estimated
10:38AM 26.3277 109.7158 311° West  Level Estimated
10:39AM 26.3982 109.6262 311° West  Level Estimated
10:40AM 26.4687 109.5365 311° West  Level Estimated
10:41AM 26.5390 109.4467 311° West  Level Estimated
10:42AM 26.6094 109.3568 311° West  Level Estimated
10:43AM 26.6796 109.2668 311° West  Level Estimated
10:44AM 26.7498 109.1767 311° West  Level Estimated
10:45AM 26.8200 109.0865 311° West  Level Estimated
10:46AM 26.8901 108.9961 311° West  Level Estimated
10:47AM 26.9601 108.9056 311° West  Level Estimated
10:48AM 27.0301 108.8151 311° West  Level Estimated
10:49AM 27.1000 108.7244 311° West  Level Estimated
10:50AM 27.1699 108.6336 311° West  Level Estimated
10:51AM 27.2397 108.5427 311° West  Level Estimated
10:52AM 27.3094 108.4517 311° West  Level Estimated
10:53AM 27.3791 108.3605 311° West  Level Estimated
10:54AM 27.4487 108.2692 311° West  Level Estimated
10:55AM 27.5183 108.1779 311° West  Level Estimated
10:56AM 27.5878 108.0864 311° West  Level Estimated
10:57AM 27.6573 107.9948 311° West  Level Estimated
10:58AM 27.7267 107.9031 311° West  Level Estimated
10:59AM 27.7960 107.8112 310° West  Level Estimated
11:00AM 27.8653 107.7193 310° West  Level Estimated
11:01AM 27.9345 107.6272 310° West  Level Estimated
11:02AM 28.0036 107.5350 310° West  Level Estimated
11:03AM 28.0727 107.4427 310° West  Level Estimated
11:04AM 28.1417 107.3503 310° West  Level Estimated
11:05AM 28.2107 107.2577 310° West  Level Estimated
11:06AM 28.2796 107.1651 310° West  Level Estimated
11:07AM 28.3484 107.0723 310° West  Level Estimated
11:08AM 28.4172 106.9794 310° West  Level Estimated
11:09AM 28.4859 106.8864 310° West  Level Estimated
11:10AM 28.5545 106.7932 310° West  Level Estimated
11:11AM 28.6231 106.7000 310° West  Level Estimated
11:12AM 28.6916 106.6066 310° West  Level Estimated
11:13AM 28.7601 106.5130 310° West  Level Estimated
11:14AM 28.8285 106.4194 310° West  Level Estimated
11:15AM 28.8968 106.3257 310° West  Level Estimated
11:16AM 28.9650 106.2318 310° West  Level Estimated
11:17AM 29.0332 106.1378 310° West  Level Estimated
11:18AM 29.1014 106.0436 310° West  Level Estimated
11:19AM 29.1694 105.9494 310° West  Level Estimated
11:20AM 29.2374 105.8550 310° West  Level Estimated
11:21AM 29.3053 105.7605 310° West  Level Estimated
11:22AM 29.3732 105.6659 309° West  Level Estimated
11:23AM 29.4410 105.5711 309° West  Level Estimated
11:24AM 29.5087 105.4762 309° West  Level Estimated
11:25AM 29.5764 105.3812 309° West  Level Estimated
11:26AM 29.6440 105.2861 309° West  Level Estimated
11:27AM 29.7115 105.1908 309° West  Level Estimated
11:28AM 29.7789 105.0954 309° West  Level Estimated
11:29AM 29.8463 104.9999 309° West  Level Estimated
11:30AM 29.9137 104.9043 309° West  Level Estimated
11:31AM 29.9809 104.8085 309° West  Level Estimated
11:32AM 30.0481 104.7126 309° West  Level Estimated
11:33AM 30.1152 104.6165 309° West  Level Estimated
11:34AM 30.1822 104.5204 309° West  Level Estimated
11:35AM 30.2492 104.4241 309° West  Level Estimated
11:36AM 30.3161 104.3276 309° West  Level Estimated
11:37AM 30.3829 104.2311 309° West  Level Estimated
11:38AM 30.4497 104.1344 309° West  Level Estimated
11:39AM 30.5164 104.0375 309° West  Level Estimated
11:40AM 30.5785 103.9471 309° West  Level Estimated
11:41AM 30.5785 103.9471 240° Southwest  Level Estimated
11:42AM 30.5785 103.9471 240° Southwest  Level Estimated
11:43AM 30.5785 103.9471 240° Southwest  Level Estimated
11:44AM 30.5785 103.9471 240° Southwest  Level Estimated
11:45AM 30.5785 103.9471 240° Southwest  Level Estimated
11:46AM 30.5785 103.9471 240° Southwest  Level Estimated
11:47AM 30.5785 103.9471 240° Southwest  Level Estimated
11:48AM 30.5785 103.9471 240° Southwest  Level Estimated
11:49AM 30.5785 103.9471 240° Southwest  Level Estimated
11:50AM 30.5785 103.9471 240° Southwest  Level Estimated
11:51AM 30.5785 103.9471 240° Southwest  Level Estimated
11:52AM 30.5785 103.9471 240° Southwest  Level Estimated
11:53AM 30.5785 103.9471 240° Southwest  Level Estimated
11:54AM 30.5785 103.9471 240° Southwest  Level Estimated
11:55AM 30.5785 103.9471 240° Southwest  Level Estimated
11:56AM 30.5785 103.9471 240° Southwest  Level Estimated